• Join FlightAware (Why Join?)
  • Login
  • US Flag 
04:19PM EDT


 

Airport Tracker/Info


-or-


 

Live Flight TrackerFlight Track Log ✈ SWA1496 ✈ 24-Aug-2013 ✈ KDEN - KONT

Flight Track Log - Related Links

Times and Time Zones

All times are in EDT time to prevent confusion due to time zone crossing. See the SWA1496 flight status page for this flight to view local times or setup timezone preferences in your user account.

Time Position Orientation Groundspeed Altitude Reporting Facility
EDT Latitude Longitude Course Direction KTS MPH feet Rate Location/Type
10:32PM 39.8333 -104.7333 270° West 164 189 6,300  Level Denver TRACON
10:33PM 39.8333 -104.8167 270° West 242 278 7,900 2,040 Climbing Denver TRACON
10:34PM 39.8167 -104.9000 255° West 274 315 10,700 3,240 Climbing Denver TRACON
10:36PM 39.7728 -105.0208 245° Southwest 267 307 15,400 2,640 Climbing Denver Center
10:37PM 39.7425 -105.1203 248° West 302 348 16,900 1,800 Climbing Denver Center
10:38PM 39.7069 -105.2394 249° West 349 402 19,100 2,220 Climbing Denver Center
10:39PM 39.6700 -105.3569 248° West 352 405 21,500 1,920 Climbing Denver Center
10:40PM 39.6261 -105.5000 248° West 400 460 23,100 1,680 Climbing Denver Center
10:41PM 39.5894 -105.6164 248° West 408 470 25,000 1,920 Climbing Denver Center
10:42PM 39.5361 -105.7861 248° West 425 489 27,100 1,620 Climbing Denver Center
10:43PM 39.4942 -105.9319 250° West 434 499 28,400 1,380 Climbing Denver Center
10:44PM 39.4444 -106.0867 247° West 461 531 30,000 1,860 Climbing Denver Center
10:45PM 39.3939 -106.2461 248° West 458 527 32,300 1,980 Climbing Denver Center
10:46PM 39.3497 -106.3892 248° West 449 517 34,100 1,800 Climbing Denver Center
10:47PM 39.3050 -106.5289 248° West 442 509 36,000 1,800 Climbing Denver Center
10:48PM 39.2536 -106.6881 247° West 432 497 37,800 960 Climbing Denver Center
10:49PM 39.2028 -106.8211 244° Southwest 430 495 38,000 60 Climbing Denver Center
10:50PM 39.1514 -106.9522 243° Southwest 428 493 38,000  Level Denver Center
10:51PM 39.0903 -107.1044 243° Southwest 428 493 38,000  Level Denver Center
10:52PM 39.0383 -107.2353 243° Southwest 427 491 38,000  Level Denver Center
10:53PM 38.9869 -107.3636 243° Southwest 423 487 38,000  Level Denver Center
10:54PM 38.9294 -107.5117 244° Southwest 414 476 38,000  Level Denver Center
10:55PM 38.8781 -107.6369 242° Southwest 412 474 38,000  Level Denver Center
10:56PM 38.8281 -107.7619 243° Southwest 412 474 38,000  Level Denver Center
10:57PM 38.7692 -107.9083 243° Southwest 412 474 38,000  Level Denver Center
10:58PM 38.7186 -108.0342 243° Southwest 415 478 38,000  Level Denver Center
10:59PM 38.6669 -108.1592 242° Southwest 414 476 38,000  Level Denver Center
11:00PM 38.6078 -108.3039 242° Southwest 410 472 38,000  Level Denver Center
11:01PM 38.5581 -108.4272 243° Southwest 408 470 38,000  Level Denver Center
11:02PM 38.5058 -108.5519 242° Southwest 412 474 38,000  Level Denver Center
11:03PM 38.4542 -108.6764 242° Southwest 414 476 38,000  Level Denver Center
11:04PM 38.3944 -108.8211 242° Southwest 412 474 38,000  Level Denver Center
11:05PM 38.3428 -108.9458 242° Southwest 414 476 38,000  Level Denver Center
11:06PM 38.2903 -109.0722 242° Southwest 419 482 38,000  Level Denver Center
11:07PM 38.2292 -109.2147 241° Southwest 413 475 38,000  Level Denver Center
11:08PM 38.1769 -109.3361 241° Southwest 411 473 38,000  Level Denver Center
11:09PM 38.1250 -109.4594 242° Southwest 412 474 38,000  Level Denver Center
11:10PM 38.0633 -109.6025 241° Southwest 413 475 38,000  Level Denver Center
11:11PM 38.0119 -109.7217 241° Southwest 414 476 38,000  Level Denver Center
11:12PM 37.9511 -109.8647 242° Southwest 414 476 38,000  Level Denver Center
11:13PM 37.9072 -109.9656 241° Southwest 412 474 38,000  Level Denver Center
11:14PM 37.8467 -110.1047 241° Southwest 404 465 38,000  Level Denver Center
11:15PM 37.7867 -110.2422 241° Southwest 400 460 38,000  Level Denver Center
11:16PM 37.7353 -110.3583 241° Southwest 397 457 38,000  Level Denver Center
11:17PM 37.6831 -110.4775 241° Southwest 403 464 38,000  Level Denver Center
11:18PM 37.6264 -110.6067 241° Southwest 406 467 38,000  Level Denver Center
11:19PM 37.5717 -110.7303 241° Southwest 404 465 38,000 240 Level Denver Center
11:20PM 37.5175 -110.8539 241° Southwest 402 463 38,500 960 Climbing Denver Center
11:21PM 37.4642 -110.9739 241° Southwest 394 453 40,000 720 Climbing Denver Center
11:22PM 37.4108 -111.0919 240° Southwest 389 448 40,000  Level Denver Center
11:23PM 37.3564 -111.2106 240° Southwest 390 449 40,000  Level Denver Center
11:24PM 37.3022 -111.3297 240° Southwest 394 453 40,000  Level Denver Center
11:25PM 37.2483 -111.4489 240° Southwest 395 455 40,000  Level Denver Center
11:26PM 37.1953 -111.5681 241° Southwest 391 450 40,000  Level Denver Center
11:27PM 37.1419 -111.6867 241° Southwest 392 451 40,000  Level Denver Center
11:28PM 37.0878 -111.8072 241° Southwest 393 452 40,000  Level Denver Center
11:29PM 37.0203 -111.9508 240° Southwest 397 457 40,000  Level Denver Center
11:30PM 36.9644 -112.0722 240° Southwest 400 460 40,000  Level Denver Center
11:31PM 36.9086 -112.1906 239° Southwest 397 457 40,000  Level Denver Center
11:32PM 36.8531 -112.3108 240° Southwest 397 457 40,000  Level Denver Center
11:34PM 36.7867 -112.4517 240° Southwest 394 453 40,000  Level Los Angeles Center
11:35PM 36.7311 -112.5697 240° Southwest 394 453 40,000  Level Los Angeles Center
11:36PM 36.6644 -112.7119 240° Southwest 394 453 40,000  Level Los Angeles Center
11:37PM 36.6092 -112.8294 240° Southwest 393 452 40,000  Level Los Angeles Center
11:38PM 36.5522 -112.9467 239° Southwest 394 453 40,000  Level Los Angeles Center
11:39PM 36.4975 -113.0642 240° Southwest 393 452 40,000  Level Los Angeles Center
11:40PM 36.4417 -113.1794 239° Southwest 391 450 40,000  Level Los Angeles Center
11:41PM 36.3886 -113.2786 236° Southwest 386 444 40,000  Level Los Angeles Center
11:42PM 36.3189 -113.4119 237° Southwest 383 441 40,000  Level Los Angeles Center
11:43PM 36.2600 -113.5219 236° Southwest 383 441 40,000  Level Los Angeles Center
11:44PM 36.2008 -113.6336 237° Southwest 387 445 40,000  Level Los Angeles Center
11:45PM 36.1419 -113.7456 237° Southwest 389 448 40,000  Level Los Angeles Center
11:46PM 36.0828 -113.8569 237° Southwest 387 445 40,000  Level Los Angeles Center
11:47PM 36.0231 -113.9706 237° Southwest 393 452 40,000  Level Los Angeles Center
11:48PM 35.9625 -114.0803 236° Southwest 389 448 40,000  Level Los Angeles Center
11:49PM 35.9019 -114.1936 237° Southwest 392 451 40,000  Level Los Angeles Center
11:50PM 35.8417 -114.3044 236° Southwest 391 450 40,000  Level Los Angeles Center
11:51PM 35.7822 -114.4172 237° Southwest 391 450 40,000  Level Los Angeles Center
11:52PM 35.7217 -114.5275 236° Southwest 390 449 40,000  Level Los Angeles Center
11:53PM 35.6619 -114.6392 237° Southwest 389 448 40,000  Level Los Angeles Center
11:54PM 35.6019 -114.7475 236° Southwest 385 443 40,000  Level Los Angeles Center
11:55PM 35.5297 -114.8794 236° Southwest 388 447 40,000  Level Los Angeles Center
11:56PM 35.4706 -114.9906 237° Southwest 386 444 40,000  Level Los Angeles Center
11:57PM 35.4092 -115.1014 236° Southwest 390 449 40,000  Level Los Angeles Center
11:58PM 35.3475 -115.2117 236° Southwest 391 450 40,000  Level Los Angeles Center
11:59PM 35.2864 -115.3211 236° Southwest 389 448 40,000  Level Los Angeles Center
12:00AM 35.2242 -115.4322 236° Southwest 393 452 40,000  Level Los Angeles Center
12:01AM 35.1625 -115.5458 236° Southwest 392 451 40,000  Level Los Angeles Center
12:02AM 35.0992 -115.6564 235° Southwest 396 456 40,000  Level Los Angeles Center
12:03AM 35.0364 -115.7678 235° Southwest 399 459 40,000 -180 Level Los Angeles Center
12:04AM 34.9756 -115.8786 236° Southwest 394 453 39,700 -1,320 Descending Los Angeles Center
12:05AM 34.9142 -115.9850 235° Southwest 387 445 37,400 -2,520 Descending Los Angeles Center
12:06AM 34.8542 -116.0897 235° Southwest 380 437 34,600 -2,940 Descending Los Angeles Center
12:07AM 34.7925 -116.1986 235° Southwest 384 442 31,500 -3,000 Descending Los Angeles Center
12:08AM 34.7258 -116.3139 235° Southwest 403 464 28,500 -2,760 Descending Los Angeles Center
12:09AM 34.6614 -116.4297 236° Southwest 413 475 25,900 -2,520 Descending Los Angeles Center
12:10AM 34.5972 -116.5389 234° Southwest 400 460 23,400 -2,460 Descending Los Angeles Center
12:11AM 34.5353 -116.6442 234° Southwest 387 445 21,000 -2,400 Descending Los Angeles Center
12:12AM 34.4772 -116.7467 236° Southwest 373 429 18,600 -2,460 Descending Los Angeles Center
12:13AM 34.4172 -116.8500 235° Southwest 372 428 16,000 -2,760 Descending Los Angeles Center
12:14AM 34.3461 -116.9714 235° Southwest 369 425 13,100 -1,860 Descending Los Angeles Center
12:15AM 34.2881 -117.0714 235° Southwest 364 419 12,300 -660 Descending Los Angeles Center
12:16AM 34.2328 -117.1464 228° Southwest 305 351 11,800 -1,200 Descending Los Angeles Center
12:17AM 34.1597 -117.1708 195° South 273 314 9,900 -1,620 Descending Los Angeles Center
12:19AM 34.0667 -117.1833 186° South 257 296 8,300 -1,320 Descending Southern California TRACON
12:20AM 34.0333 -117.2333 231° Southwest 209 241 7,100 -1,320 Descending Southern California TRACON
12:21AM 34.0500 -117.3000 287° West 204 235 5,800 -1,320 Descending Southern California TRACON
12:22AM 34.0500 -117.3667 270° West 187 215 4,500 -1,200 Descending Southern California TRACON
12:23AM 34.0500 -117.4167 270° West 190 219 3,600 -1,020 Descending Southern California TRACON
12:24AM 34.0500 -117.4833 270° West 182 209 2,500 -960 Descending Southern California TRACON
12:25AM 34.0500 -117.5333 270° West 142 163 1,700 -720 Descending Southern California TRACON
12:26AM 34.0500 -117.5833 270° West 138 159 1,100 -600 Descending Southern California TRACON
12:28AM 34.0500 -117.6000 270° West  Level FlightAware Approximate
12:35AM 34.0560 -117.6012 270° West  Level Estimated